Time;durP1;ratioP1;P1;durP2;ratioP2;P2;SDS_P1;SDS_P2;PMS_P1;PMS_P2;Temp;Humidity;BMP_temperature;BMP_pressure;BME280_temperature;BME280_humidity;BME280_pressure;Samples;Min_cycle;Max_cycle;Signal;HPM_P1;HPM_P2
2021/04/22 00:01:46;;;;;;;3.80;2.90;;;;;;;9.14;66.70;99432.05;1698718;82;21192;-50
2021/04/22 00:04:13;;;;;;;5.03;2.83;;;;;;;9.11;66.73;99433.05;1694372;82;21453;-49
2021/04/22 00:06:40;;;;;;;2.90;2.70;;;;;;;9.09;66.76;99439.87;1693298;82;22348;-51
2021/04/22 00:09:08;;;;;;;5.40;2.67;;;;;;;9.08;66.78;99437.25;1692025;82;21191;-50
2021/04/22 00:11:36;;;;;;;3.60;2.80;;;;;;;9.06;66.81;99440.47;1696368;82;21203;-49
2021/04/22 00:14:05;;;;;;;4.03;3.60;;;;;;;9.03;66.87;99433.89;1693868;82;21630;-49
2021/04/22 00:16:33;;;;;;;2.37;2.17;;;;;;;9.02;66.88;99445.09;1693679;82;21246;-50
2021/04/22 00:19:00;;;;;;;3.77;3.27;;;;;;;9.00;66.89;99443.45;1694880;82;21544;-49
2021/04/22 00:21:27;;;;;;;2.93;2.73;;;;;;;8.98;66.92;99437.27;1694333;82;21196;-50
2021/04/22 00:23:54;;;;;;;3.27;3.07;;;;;;;8.96;66.92;99441.37;1694485;82;22275;-50
2021/04/22 00:26:22;;;;;;;2.87;2.63;;;;;;;8.94;66.94;99445.92;1693908;82;21203;-49
2021/04/22 00:28:49;;;;;;;4.07;3.67;;;;;;;8.91;66.97;99442.53;1695261;82;21179;-49
2021/04/22 00:31:17;;;;;;;3.70;2.83;;;;;;;8.90;66.99;99444.81;1696280;82;22405;-51
2021/04/22 00:33:44;;;;;;;2.27;1.70;;;;;;;8.88;67.02;99444.87;1703499;82;21182;-49
2021/04/22 00:36:13;;;;;;;5.83;3.00;;;;;;;8.89;67.03;99449.78;1702821;82;21476;-49
2021/04/22 00:38:41;;;;;;;3.17;2.20;;;;;;;8.87;67.02;99447.16;1700060;82;21591;-51
2021/04/22 00:41:10;;;;;;;2.90;2.67;;;;;;;8.87;67.03;99455.68;1703533;82;21195;-50
2021/04/22 00:43:37;;;;;;;2.53;2.23;;;;;;;8.85;67.06;99457.55;1699546;82;21282;-51
2021/04/22 00:46:04;;;;;;;3.37;2.60;;;;;;;8.83;67.07;99462.14;1699953;82;21669;-50
2021/04/22 00:48:31;;;;;;;3.17;2.93;;;;;;;8.81;67.06;99466.23;1705830;82;22055;-49
2021/04/22 00:51:01;;;;;;;3.57;2.97;;;;;;;8.78;67.08;99458.78;1700586;82;21658;-49
2021/04/22 00:53:30;;;;;;;3.90;3.33;;;;;;;8.76;67.11;99460.22;1670670;82;21199;-50
2021/04/22 00:55:57;;;;;;;5.43;3.03;;;;;;;8.72;67.16;99458.60;1656047;82;22185;-50
2021/04/22 00:58:24;;;;;;;3.87;3.20;;;;;;;8.69;67.16;99461.41;1703541;82;21338;-50
2021/04/22 01:00:57;;;;;;;3.47;3.07;;;;;;;8.65;67.25;99457.14;1699460;82;21179;-49
2021/04/22 01:03:25;;;;;;;4.50;2.43;;;;;;;8.63;67.29;99465.72;1700302;82;21104;-50
2021/04/22 01:05:58;;;;;;;4.73;3.77;;;;;;;8.60;67.39;99465.38;1701334;82;21124;-50
2021/04/22 01:08:26;;;;;;;4.97;3.70;;;;;;;8.57;67.50;99467.34;1702518;82;21585;-50
2021/04/22 01:10:53;;;;;;;5.17;4.37;;;;;;;8.54;67.57;99471.49;1704708;82;21143;-49
2021/04/22 01:13:22;;;;;;;5.40;3.43;;;;;;;8.53;67.64;99469.28;1702579;82;21207;-50
2021/04/22 01:15:50;;;;;;;5.33;3.63;;;;;;;8.51;67.67;99474.30;1703571;82;21174;-50
2021/04/22 01:18:17;;;;;;;4.37;3.53;;;;;;;8.50;67.70;99475.27;1699757;82;21188;-50
2021/04/22 01:20:49;;;;;;;3.47;2.87;;;;;;;8.47;67.79;99468.69;1699579;82;21554;-50
2021/04/22 01:23:16;;;;;;;3.13;2.90;;;;;;;8.44;67.85;99476.86;1705564;82;21179;-50
2021/04/22 01:25:49;;;;;;;5.40;3.80;;;;;;;8.40;67.91;99477.48;1707342;82;21566;-50
2021/04/22 01:28:18;;;;;;;5.87;3.67;;;;;;;8.38;67.96;99483.37;1707573;82;21115;-50
2021/04/22 01:30:52;;;;;;;2.23;2.03;;;;;;;8.38;68.04;99478.47;1703635;82;21411;-50
2021/04/22 01:33:26;;;;;;;5.95;2.30;;;;;;;8.35;68.13;99478.13;1705952;82;21964;-49
2021/04/22 01:35:57;;;;;;;4.05;2.92;;;;;;;8.33;68.19;99474.20;1707121;82;21151;-50
2021/04/22 01:38:25;;;;;;;3.87;3.57;;;;;;;8.32;68.28;99472.92;1709031;82;21104;-50
2021/04/22 01:40:52;;;;;;;4.53;3.80;;;;;;;8.32;68.29;99468.43;1708098;82;21111;-50
2021/04/22 01:43:21;;;;;;;3.60;2.87;;;;;;;8.31;68.32;99467.15;1709422;82;21123;-50
2021/04/22 01:45:48;;;;;;;3.30;3.03;;;;;;;8.28;68.35;99469.92;1708501;82;21688;-50
2021/04/22 01:48:16;;;;;;;6.03;3.83;;;;;;;8.26;68.39;99461.06;1708298;82;21147;-50
2021/04/22 01:50:44;;;;;;;5.70;3.73;;;;;;;8.24;68.43;99471.88;1709203;82;21649;-50
2021/04/22 01:53:12;;;;;;;4.23;3.83;;;;;;;8.23;68.44;99470.13;1711436;82;21244;-49
2021/04/22 01:55:42;;;;;;;3.03;2.83;;;;;;;8.21;68.50;99473.34;1710004;82;21685;-50
2021/04/22 01:58:13;;;;;;;3.77;3.33;;;;;;;8.20;68.50;99476.08;1710051;82;21581;-49
2021/04/22 02:00:49;;;;;;;3.37;2.40;;;;;;;8.18;68.54;99465.42;1707557;82;21151;-48
2021/04/22 02:03:17;;;;;;;2.10;1.83;;;;;;;8.17;68.61;99470.84;1707800;82;21194;-49
2021/04/22 02:05:46;;;;;;;3.53;2.90;;;;;;;8.17;68.70;99470.84;1712082;82;21139;-49
2021/04/22 02:08:15;;;;;;;4.77;3.40;;;;;;;8.16;68.77;99477.17;1709377;82;21864;-50
2021/04/22 02:10:42;;;;;;;2.77;2.57;;;;;;;8.15;68.83;99480.78;1708599;82;21383;-48
2021/04/22 02:13:11;;;;;;;4.83;4.10;;;;;;;8.14;68.88;99483.93;1713106;82;21195;-48
2021/04/22 02:15:38;;;;;;;5.17;3.47;;;;;;;8.11;68.95;99483.17;1708213;82;21159;-49
2021/04/22 02:18:06;;;;;;;4.63;3.70;;;;;;;8.08;69.02;99476.13;1708788;82;21657;-50
2021/04/22 02:23:07;;;;;;;4.47;4.17;;;;;;;8.07;69.12;99478.90;1868230;75;22630;-51
2021/04/22 02:25:34;;;;;;;4.03;3.57;;;;;;;8.02;69.17;99476.86;1839112;76;21526;-50
2021/04/22 02:28:02;;;;;;;3.67;2.60;;;;;;;8.02;69.23;99478.20;1837797;76;22284;-49
2021/04/22 02:30:32;;;;;;;3.53;3.23;;;;;;;8.02;69.27;99476.86;1839097;76;21478;-50
2021/04/22 02:33:00;;;;;;;3.27;2.87;;;;;;;8.02;69.36;99475.52;1841452;76;20961;-49
2021/04/22 02:35:32;;;;;;;5.23;3.83;;;;;;;7.99;69.43;99476.55;1779452;78;21649;-51
2021/04/22 02:37:59;;;;;;;3.30;3.10;;;;;;;7.97;69.52;99479.75;1803538;77;21173;-51
2021/04/22 02:40:29;;;;;;;5.60;3.97;;;;;;;7.96;69.58;99471.30;1767584;79;21214;-51
2021/04/22 02:42:58;;;;;;;4.83;3.90;;;;;;;7.96;69.61;99476.66;1797320;78;21169;-50
2021/04/22 02:45:28;;;;;;;4.10;3.73;;;;;;;7.94;69.64;99478.06;1802108;78;21163;-50
2021/04/22 02:47:55;;;;;;;6.07;4.77;;;;;;;7.94;69.65;99481.20;1785165;78;21174;-51
2021/04/22 02:50:25;;;;;;;4.87;4.43;;;;;;;7.92;69.70;99480.39;1805420;78;21149;-51
2021/04/22 02:52:53;;;;;;;3.97;3.63;;;;;;;7.90;69.69;99480.95;1804307;78;21362;-50
2021/04/22 02:55:20;;;;;;;2.83;2.63;;;;;;;7.90;69.71;99474.25;1787749;78;21522;-49
2021/04/22 02:57:49;;;;;;;4.77;2.93;;;;;;;7.90;69.73;99481.82;1798539;78;21572;-48
2021/04/22 03:00:21;;;;;;;3.53;3.30;;;;;;;7.93;69.72;99492.86;1805621;78;21111;-49
2021/04/22 03:02:48;;;;;;;4.17;3.77;;;;;;;7.93;69.77;99491.05;1801393;78;21092;-50
2021/04/22 03:05:16;;;;;;;5.33;3.83;;;;;;;7.94;69.75;99498.63;1802394;77;21505;-49
2021/04/22 03:07:45;;;;;;;5.20;3.93;;;;;;;7.95;69.78;99499.03;1786928;78;21193;-50
2021/04/22 03:10:17;;;;;;;9.40;4.93;;;;;;;7.95;69.75;99501.25;1773567;79;21155;-51
2021/04/22 03:12:44;;;;;;;4.67;4.27;;;;;;;7.96;69.72;99502.12;1776318;79;21107;-50
2021/04/22 03:15:12;;;;;;;5.03;4.60;;;;;;;7.96;69.70;99500.31;1797577;77;21107;-51
2021/04/22 03:17:39;;;;;;;6.03;3.90;;;;;;;7.95;69.68;99499.03;1775110;79;21206;-49
2021/04/22 03:20:08;;;;;;;5.97;5.43;;;;;;;7.90;69.68;99504.60;1782889;78;21135;-50
2021/04/22 03:22:35;;;;;;;5.10;4.60;;;;;;;7.89;69.75;99497.95;1804605;78;21051;-51
2021/04/22 03:25:04;;;;;;;3.43;3.07;;;;;;;7.88;69.79;99513.63;1782539;78;21178;-49
2021/04/22 03:27:31;;;;;;;3.67;3.37;;;;;;;7.86;69.83;99506.98;1776361;79;21222;-48
2021/04/22 03:29:59;;;;;;;4.07;3.07;;;;;;;7.86;69.91;99508.79;1778111;79;21391;-51
2021/04/22 03:32:26;;;;;;;4.80;3.73;;;;;;;7.84;69.98;99513.33;1803723;78;21199;-50
2021/04/22 03:34:54;;;;;;;4.40;3.57;;;;;;;7.83;70.03;99520.50;1776068;78;21131;-51
2021/04/22 03:37:21;;;;;;;4.27;3.87;;;;;;;7.83;70.07;99520.96;1774581;79;21182;-50
2021/04/22 03:39:48;;;;;;;4.23;3.47;;;;;;;7.84;70.12;99510.66;1775736;79;21171;-50
2021/04/22 03:42:17;;;;;;;4.90;4.27;;;;;;;7.83;70.16;99513.80;1773092;79;22728;-50
2021/04/22 03:44:45;;;;;;;4.00;3.70;;;;;;;7.84;70.20;99518.69;1770634;79;22251;-50
2021/04/22 03:47:12;;;;;;;5.37;4.87;;;;;;;7.85;70.25;99525.80;1773538;79;21198;-50
2021/04/22 03:49:40;;;;;;;5.63;4.27;;;;;;;7.89;70.24;99515.38;1774494;79;21103;-50
2021/04/22 03:52:07;;;;;;;5.13;4.73;;;;;;;7.94;70.24;99516.92;1780222;79;21385;-50
2021/04/22 03:54:34;;;;;;;4.90;4.37;;;;;;;8.03;70.19;99525.52;1803331;78;21415;-51
2021/04/22 03:57:02;;;;;;;4.30;3.77;;;;;;;8.15;70.18;99521.00;1788238;78;21138;-50
2021/04/22 03:59:29;;;;;;;5.27;3.00;;;;;;;8.30;70.02;99525.70;1800542;78;21501;-50
2021/04/22 04:01:56;;;;;;;5.67;3.67;;;;;;;8.50;69.78;99524.89;1768208;79;21183;-50
2021/04/22 04:04:23;;;;;;;4.83;3.80;;;;;;;8.71;69.46;99538.23;1776489;78;21441;-51
2021/04/22 04:06:50;;;;;;;4.50;4.07;;;;;;;8.93;69.12;99538.63;1802382;78;22249;-51
2021/04/22 04:09:18;;;;;;;3.53;3.23;;;;;;;9.17;68.67;99540.67;1806918;78;21174;-50
2021/04/22 04:11:45;;;;;;;6.77;4.53;;;;;;;9.43;68.12;99539.00;1777162;78;21638;-51
2021/04/22 04:14:12;;;;;;;5.53;5.03;;;;;;;9.73;67.47;99541.55;1776878;78;21514;-51
2021/04/22 04:16:39;;;;;;;4.77;4.03;;;;;;;10.01;66.63;99545.59;1777140;78;21800;-51
2021/04/22 04:19:07;;;;;;;3.53;3.13;;;;;;;10.19;65.78;99547.41;1770999;78;21207;-51
2021/04/22 04:21:35;;;;;;;4.87;4.37;;;;;;;10.27;65.08;99554.62;1761678;79;21139;-52
2021/04/22 04:24:03;;;;;;;4.97;4.13;;;;;;;10.25;64.58;99544.41;1784509;79;21138;-51
2021/04/22 04:26:30;;;;;;;5.87;3.73;;;;;;;10.17;64.25;99542.55;1776488;79;21095;-51
2021/04/22 04:28:58;;;;;;;6.40;3.67;;;;;;;10.12;64.15;99546.79;1804994;78;21103;-55
2021/04/22 04:31:25;;;;;;;10.83;3.30;;;;;;;10.11;64.08;99550.92;1806001;78;21443;-51
2021/04/22 04:33:52;;;;;;;5.17;2.77;;;;;;;10.19;64.10;99557.70;1777077;78;21017;-51
2021/04/22 04:36:20;;;;;;;6.33;3.90;;;;;;;10.32;63.96;99566.02;1775327;78;21127;-51
2021/04/22 04:38:47;;;;;;;4.65;3.27;;;;;;;10.42;63.70;99566.42;1802385;78;21079;-51
2021/04/22 04:41:16;;;;;;;4.20;3.73;;;;;;;10.52;63.40;99562.33;1804019;78;21076;-51
2021/04/22 04:43:44;;;;;;;4.13;3.83;;;;;;;10.59;63.20;99567.79;1782188;78;21453;-51
2021/04/22 04:46:13;;;;;;;4.60;4.20;;;;;;;10.63;62.96;99565.35;1806293;77;21123;-50
2021/04/22 04:48:40;;;;;;;6.75;5.05;;;;;;;10.68;62.86;99571.36;1802184;77;21732;-51
2021/04/22 04:51:08;;;;;;;6.97;4.77;;;;;;;10.68;62.53;99569.14;1789089;78;21106;-51
2021/04/22 04:53:37;;;;;;;3.77;3.52;;;;;;;10.63;62.51;99576.59;1805253;78;21087;-52
2021/04/22 04:56:05;;;;;;;3.98;3.62;;;;;;;10.59;62.44;99574.52;1806411;78;21362;-51
2021/04/22 04:58:35;;;;;;;7.62;4.67;;;;;;;10.54;62.54;99583.31;1811120;78;21118;-51
2021/04/22 05:01:02;;;;;;;7.78;5.30;;;;;;;10.48;62.78;99582.25;1765891;79;21119;-50
2021/04/22 05:03:30;;;;;;;7.27;5.30;;;;;;;10.45;62.88;99581.95;1805664;78;21089;-51
2021/04/22 05:05:58;;;;;;;6.22;5.62;;;;;;;10.41;62.88;99582.17;1801455;78;21084;-51
2021/04/22 05:08:26;;;;;;;7.22;5.12;;;;;;;10.37;63.01;99580.13;1807210;78;21429;-51
2021/04/22 05:10:53;;;;;;;8.80;5.60;;;;;;;10.33;63.18;99578.52;1775386;78;21764;-51
2021/04/22 05:13:20;;;;;;;5.13;4.63;;;;;;;10.32;63.28;99579.47;1778275;78;21218;-52
2021/04/22 05:15:49;;;;;;;5.25;4.42;;;;;;;10.33;63.55;99588.41;1801344;78;21512;-51
2021/04/22 05:18:16;;;;;;;6.90;5.13;;;;;;;10.32;63.60;99587.54;1808518;78;21174;-51
2021/04/22 05:20:43;;;;;;;5.93;5.33;;;;;;;10.33;63.61;99583.03;1806830;78;21628;-51
2021/04/22 05:23:11;;;;;;;7.07;5.03;;;;;;;10.33;63.49;99583.91;1764053;78;21179;-51
2021/04/22 05:25:38;;;;;;;3.80;3.50;;;;;;;10.36;63.52;99584.23;1726409;80;21192;-51
2021/04/22 05:28:05;;;;;;;4.27;3.87;;;;;;;10.41;63.53;99590.24;1758192;79;21166;-51
2021/04/22 05:30:32;;;;;;;5.78;4.97;;;;;;;10.46;63.60;99589.56;1762064;80;21167;-51
2021/04/22 05:33:00;;;;;;;4.37;4.08;;;;;;;10.53;63.42;99593.20;1764701;79;22070;-51
2021/04/22 05:35:27;;;;;;;5.35;4.85;;;;;;;10.59;63.31;99592.88;1761406;79;21183;-51
2021/04/22 05:37:57;;;;;;;5.47;4.35;;;;;;;10.67;63.31;99596.53;1759392;79;21187;-51
2021/04/22 05:40:26;;;;;;;6.20;4.28;;;;;;;10.75;63.22;99591.63;1745422;80;21201;-51
2021/04/22 05:42:53;;;;;;;6.25;5.33;;;;;;;10.82;62.98;99597.55;1791572;78;21147;-51
2021/04/22 05:45:20;;;;;;;8.58;4.83;;;;;;;10.88;62.82;99595.91;1788191;78;21850;-51
2021/04/22 05:47:48;;;;;;;6.17;3.83;;;;;;;10.93;62.71;99589.33;1787563;78;21171;-51
2021/04/22 05:50:16;;;;;;;5.45;3.52;;;;;;;11.02;62.60;99589.80;1762418;79;21178;-52
2021/04/22 05:52:43;;;;;;;4.87;4.00;;;;;;;11.06;62.53;99586.84;1791352;78;21143;-51
2021/04/22 05:55:12;;;;;;;9.25;5.25;;;;;;;11.13;62.47;99595.50;1752582;80;21646;-51
2021/04/22 05:57:39;;;;;;;7.17;4.20;;;;;;;11.18;62.33;99586.68;1789576;78;21269;-51
2021/04/22 06:00:10;;;;;;;3.87;3.58;;;;;;;11.23;62.19;99591.34;1787936;78;21198;-52
2021/04/22 06:02:37;;;;;;;7.50;5.08;;;;;;;11.27;61.99;99580.80;1783018;78;21163;-51
2021/04/22 06:05:07;;;;;;;4.72;3.92;;;;;;;11.31;61.85;99578.36;1783760;78;21205;-51
2021/04/22 06:07:35;;;;;;;4.00;3.67;;;;;;;11.35;61.83;99580.78;1786259;78;21183;-51
2021/04/22 06:10:04;;;;;;;6.05;4.87;;;;;;;11.42;61.69;99581.79;1786516;78;22424;-51
2021/04/22 06:12:31;;;;;;;3.08;2.80;;;;;;;11.49;61.43;99580.50;1787352;78;21663;-51
2021/04/22 06:15:00;;;;;;;4.87;4.25;;;;;;;11.55;61.16;99576.14;1785391;78;21214;-51
2021/04/22 06:17:28;;;;;;;3.17;2.80;;;;;;;11.61;61.23;99571.27;1787414;78;21100;-52
2021/04/22 06:19:55;;;;;;;4.20;3.10;;;;;;;11.69;61.09;99574.89;1789108;78;21091;-52
2021/04/22 06:22:22;;;;;;;13.70;3.72;;;;;;;11.77;60.87;99582.58;1786093;78;21312;-51
2021/04/22 06:24:49;;;;;;;3.75;3.45;;;;;;;11.82;60.57;99584.09;1780555;78;21185;-51
2021/04/22 06:27:17;;;;;;;3.35;3.05;;;;;;;11.87;60.41;99583.34;1776970;78;22216;-51
2021/04/22 06:29:44;;;;;;;4.17;3.52;;;;;;;11.92;60.20;99584.41;1775461;78;21181;-52
2021/04/22 06:32:11;;;;;;;3.83;3.52;;;;;;;11.96;60.13;99578.78;1776757;78;21199;-51
2021/04/22 06:34:38;;;;;;;6.72;3.70;;;;;;;12.01;60.01;99586.59;1761855;79;21645;-51
2021/04/22 06:37:06;;;;;;;5.42;4.58;;;;;;;12.05;60.00;99585.00;1749685;80;21585;-52
2021/04/22 06:39:33;;;;;;;4.92;3.27;;;;;;;12.13;60.00;99592.18;1746096;80;21566;-51
2021/04/22 06:42:00;;;;;;;3.85;3.47;;;;;;;12.24;59.98;99592.05;1766133;79;21195;-52
2021/04/22 06:44:27;;;;;;;7.83;3.45;;;;;;;12.31;59.75;99583.52;1770541;79;21183;-51
2021/04/22 06:46:55;;;;;;;6.50;3.17;;;;;;;12.41;59.60;99590.12;1775858;79;21248;-51
2021/04/22 06:49:22;;;;;;;3.75;3.45;;;;;;;12.52;59.39;99589.47;1773116;79;21495;-52
2021/04/22 06:51:49;;;;;;;3.00;2.70;;;;;;;12.60;59.28;99596.63;1770174;79;21173;-51
2021/04/22 06:54:17;;;;;;;8.43;3.90;;;;;;;12.68;59.09;99595.70;1770731;79;21656;-52
2021/04/22 06:56:44;;;;;;;4.72;2.10;;;;;;;12.81;59.08;99597.20;1787064;78;21213;-51
2021/04/22 06:59:11;;;;;;;4.10;1.80;;;;;;;12.95;58.77;99595.02;1760269;79;21706;-51
2021/04/22 07:01:39;;;;;;;4.15;3.65;;;;;;;13.09;58.16;99584.27;1741910;80;21209;-51
2021/04/22 07:04:06;;;;;;;4.50;2.30;;;;;;;13.25;57.92;99575.63;1780215;78;21206;-51
2021/04/22 07:06:34;;;;;;;2.17;1.82;;;;;;;13.41;57.36;99579.11;1747011;80;21202;-51
2021/04/22 07:09:01;;;;;;;2.30;1.90;;;;;;;13.55;56.68;99577.75;1761752;79;21203;-51
2021/04/22 07:11:28;;;;;;;7.75;1.65;;;;;;;13.71;56.06;99575.42;1743147;80;21866;-51
2021/04/22 07:13:56;;;;;;;3.98;1.60;;;;;;;13.84;55.52;99571.85;1784171;78;21182;-51
2021/04/22 07:16:23;;;;;;;4.08;2.00;;;;;;;14.00;55.07;99569.02;1782334;78;21205;-51
2021/04/22 07:18:52;;;;;;;4.28;2.05;;;;;;;14.18;54.35;99566.95;1760160;79;21202;-52
2021/04/22 07:21:19;;;;;;;2.30;1.62;;;;;;;14.35;53.87;99567.57;1751160;80;21098;-51
2021/04/22 07:23:47;;;;;;;3.17;1.62;;;;;;;14.50;53.54;99568.89;1782544;78;22314;-52
2021/04/22 07:26:15;;;;;;;3.75;1.72;;;;;;;14.63;53.09;99565.23;1789108;78;21126;-51
2021/04/22 07:28:42;;;;;;;1.75;1.55;;;;;;;14.75;52.39;99567.61;1768395;79;21524;-51
2021/04/22 07:31:11;;;;;;;2.67;2.40;;;;;;;14.86;51.75;99570.47;1801464;78;21991;-51
2021/04/22 07:33:38;;;;;;;7.00;1.60;;;;;;;14.97;51.95;99575.16;1800537;78;21095;-51
2021/04/22 07:36:07;;;;;;;5.30;1.42;;;;;;;15.05;51.25;99567.36;1787488;78;21529;-51
2021/04/22 07:38:35;;;;;;;2.65;1.62;;;;;;;15.16;51.66;99568.81;1787283;78;21119;-52
2021/04/22 07:41:02;;;;;;;6.35;2.00;;;;;;;15.25;51.76;99570.02;1783337;78;21123;-51
2021/04/22 07:43:31;;;;;;;1.62;1.37;;;;;;;15.34;51.40;99565.30;1783833;78;21124;-52
2021/04/22 07:45:58;;;;;;;3.05;1.95;;;;;;;15.44;51.12;99562.33;1806656;78;21645;-52
2021/04/22 07:48:25;;;;;;;33.30;4.15;;;;;;;15.55;51.03;99561.12;1789211;78;21643;-50
2021/04/22 07:50:53;;;;;;;4.22;1.87;;;;;;;15.80;50.98;99566.51;1801135;78;21158;-51
2021/04/22 07:53:21;;;;;;;6.72;2.42;;;;;;;15.80;50.98;99566.51;1784198;78;21107;-52
2021/04/22 07:55:48;;;;;;;20.48;3.35;;;;;;;15.99;49.37;99570.60;1802824;78;21162;-50
2021/04/22 07:58:15;;;;;;;1.52;1.35;;;;;;;16.04;47.86;99576.55;1799424;78;21178;-51
2021/04/22 08:00:45;;;;;;;3.42;1.92;;;;;;;16.05;47.60;99578.28;1804433;78;21373;-50
2021/04/22 08:03:13;;;;;;;4.22;1.65;;;;;;;16.05;47.60;99578.28;1776766;78;21627;-51
2021/04/22 08:05:43;;;;;;;1.75;1.27;;;;;;;16.07;47.98;99570.91;1774554;78;21889;-50
2021/04/22 08:08:12;;;;;;;4.72;1.72;;;;;;;16.12;47.94;99573.64;1778200;78;21151;-50
2021/04/22 08:10:43;;;;;;;2.72;2.10;;;;;;;16.16;47.47;99572.95;1782740;79;21138;-52
2021/04/22 08:13:12;;;;;;;5.58;2.83;;;;;;;16.20;47.57;99571.72;1801222;78;21383;-50
2021/04/22 08:15:43;;;;;;;2.22;2.00;;;;;;;16.21;47.73;99567.54;1770283;79;21254;-52
2021/04/22 08:18:10;;;;;;;2.85;1.75;;;;;;;16.26;47.70;99569.89;1768906;78;21574;-50
2021/04/22 08:20:38;;;;;;;3.60;2.30;;;;;;;16.30;47.99;99567.34;1780192;78;21511;-52
2021/04/22 08:23:06;;;;;;;2.37;1.95;;;;;;;16.37;48.33;99572.69;1770571;79;21127;-51
2021/04/22 08:25:44;;;;;;;2.22;1.50;;;;;;;16.43;48.30;99566.78;1807996;78;21445;-50
2021/04/22 08:28:15;;;;;;;3.60;1.82;;;;;;;16.52;47.35;99565.23;1808832;78;21222;-51
2021/04/22 08:30:58;;;;;;;2.45;1.77;;;;;;;16.59;47.10;99567.36;1809881;78;21117;-51
2021/04/22 08:33:29;;;;;;;2.20;1.60;;;;;;;16.68;46.96;99563.11;1782556;78;21103;-52
2021/04/22 08:35:57;;;;;;;8.35;1.40;;;;;;;16.75;46.89;99566.25;1795792;79;21471;-50
2021/04/22 08:38:24;;;;;;;2.47;1.02;;;;;;;16.85;47.11;99559.09;1791895;78;21387;-50
2021/04/22 08:40:53;;;;;;;3.17;1.00;;;;;;;16.92;46.24;99554.95;1784400;78;21579;-50
2021/04/22 08:43:21;;;;;;;1.42;0.90;;;;;;;16.95;45.64;99561.00;1809690;78;21187;-50
2021/04/22 08:45:48;;;;;;;2.45;0.90;;;;;;;17.00;44.97;99559.30;1788300;78;21094;-51
2021/04/22 08:49:11;;;;;;;1.80;1.10;;;;;;;17.10;44.56;99553.49;1797719;78;24807;-49
2021/04/22 08:51:39;;;;;;;1.15;1.00;;;;;;;17.05;44.63;99555.72;1773761;79;21191;-51
2021/04/22 08:54:06;;;;;;;1.75;0.90;;;;;;;17.05;44.45;99561.64;1772484;79;21368;-50
2021/04/22 08:56:36;;;;;;;1.20;0.80;;;;;;;17.06;44.67;99552.02;1775032;79;21928;-51
2021/04/22 08:59:03;;;;;;;3.00;1.00;;;;;;;17.04;44.70;99559.42;1771555;79;21207;-50
2021/04/22 09:01:32;;;;;;;11.53;1.15;;;;;;;17.06;44.26;99552.02;1769692;79;21194;-51
2021/04/22 09:04:04;;;;;;;1.37;0.98;;;;;;;17.04;44.11;99555.34;1767582;79;21220;-51
2021/04/22 09:06:37;;;;;;;2.98;1.00;;;;;;;17.01;44.10;99547.44;1769593;79;21766;-51
2021/04/22 09:09:06;;;;;;;0.78;0.70;;;;;;;16.98;42.91;99555.83;1766241;79;21103;-51
2021/04/22 09:11:44;;;;;;;4.30;0.78;;;;;;;17.00;42.34;99541.14;1771656;79;21472;-51
2021/04/22 09:14:14;;;;;;;3.62;0.70;;;;;;;17.05;42.32;99534.45;1773420;79;21299;-50
2021/04/22 09:16:42;;;;;;;1.05;0.70;;;;;;;17.10;41.66;99537.17;1775527;79;21243;-50
2021/04/22 09:19:12;;;;;;;2.37;0.70;;;;;;;17.22;42.06;99547.10;1771718;79;22930;-52
2021/04/22 09:21:55;;;;;;;2.02;0.80;;;;;;;17.35;41.51;99538.33;1773503;79;21190;-49
2021/04/22 09:24:25;;;;;;;2.50;0.75;;;;;;;17.48;41.54;99538.23;1767896;79;21212;-53
2021/04/22 09:27:00;;;;;;;3.80;0.70;;;;;;;17.65;40.90;99527.39;1775645;79;21182;-51
2021/04/22 09:29:44;;;;;;;1.00;0.80;;;;;;;17.78;40.29;99536.80;1777472;79;21198;-52
2021/04/22 09:32:21;;;;;;;3.45;0.90;;;;;;;17.86;40.35;99531.11;1775669;79;21372;-52
2021/04/22 09:34:54;;;;;;;1.30;0.80;;;;;;;17.96;40.07;99526.61;1775136;79;21214;-51
2021/04/22 09:37:25;;;;;;;4.20;0.90;;;;;;;17.97;41.12;99518.81;1773721;79;21179;-50
2021/04/22 09:39:52;;;;;;;2.20;0.90;;;;;;;18.06;41.65;99529.45;1771537;79;21495;-49
2021/04/22 09:42:21;;;;;;;0.95;0.80;;;;;;;18.12;41.97;99518.91;1754775;79;21161;-51
2021/04/22 09:44:50;;;;;;;1.47;1.10;;;;;;;18.17;40.97;99517.67;1737386;81;21223;-53
2021/04/22 09:47:22;;;;;;;1.17;0.98;;;;;;;18.15;40.71;99517.30;1735671;81;21178;-51
2021/04/22 09:52:35;;;;;;;1.07;0.80;;;;;;;17.97;40.29;99513.37;1822641;75;27661;-52
2021/04/22 09:55:03;;;;;;;1.98;0.85;;;;;;;17.82;40.88;99521.44;1794944;77;21159;-50
2021/04/22 09:57:31;;;;;;;2.17;0.85;;;;;;;17.70;41.00;99516.48;1791361;77;22061;-52
2021/04/22 09:59:59;;;;;;;3.12;0.82;;;;;;;17.56;40.92;99516.72;1792878;77;21431;-53
2021/04/22 10:02:28;;;;;;;1.30;1.10;;;;;;;17.45;41.02;99516.70;1795924;77;20961;-51
2021/04/22 10:04:56;;;;;;;1.57;1.30;;;;;;;17.32;41.35;99516.83;1796920;77;21182;-51
2021/04/22 10:07:30;;;;;;;0.85;0.72;;;;;;;17.22;41.69;99521.75;1790653;77;21591;-49
2021/04/22 10:10:02;;;;;;;2.15;0.70;;;;;;;17.12;41.32;99522.10;1792846;77;21384;-52
2021/04/22 10:12:34;;;;;;;0.85;0.80;;;;;;;17.02;41.04;99509.72;1794694;77;21468;-51
2021/04/22 10:15:22;;;;;;;0.88;0.68;;;;;;;16.94;41.33;99519.84;1798270;77;21416;-52
2021/04/22 10:17:58;;;;;;;0.78;0.78;;;;;;;16.87;41.75;99522.67;1791409;77;21527;-52
2021/04/22 10:20:28;;;;;;;0.78;0.70;;;;;;;16.80;41.05;99521.41;1795598;77;20961;-52
2021/04/22 10:22:56;;;;;;;4.80;1.50;;;;;;;16.76;43.01;99536.73;1795792;77;21918;-51
2021/04/22 10:25:34;;;;;;;4.55;0.90;;;;;;;16.67;46.00;99532.00;1795141;77;21194;-51
2021/04/22 10:28:10;;;;;;;1.30;0.90;;;;;;;16.53;47.06;99528.44;1794446;77;21171;-51
2021/04/22 10:30:39;;;;;;;1.45;1.35;;;;;;;16.40;48.53;99526.29;1797502;77;21217;-52
2021/04/22 10:33:07;;;;;;;1.90;0.80;;;;;;;16.33;50.71;99531.81;1792789;77;21513;-51
2021/04/22 10:35:38;;;;;;;0.80;0.80;;;;;;;16.30;52.66;99527.09;1799903;77;21370;-50
2021/04/22 10:38:05;;;;;;;3.47;1.20;;;;;;;16.25;52.80;99524.70;1790911;77;21132;-50
2021/04/22 10:40:36;;;;;;;1.57;1.07;;;;;;;16.17;52.90;99521.20;1794641;77;21111;-52
2021/04/22 10:43:05;;;;;;;1.22;0.95;;;;;;;16.13;54.35;99525.64;1792837;77;21102;-50
2021/04/22 10:45:35;;;;;;;1.60;0.80;;;;;;;16.10;52.46;99520.42;1795202;77;21566;-50
2021/04/22 10:48:05;;;;;;;1.62;1.00;;;;;;;16.08;52.53;99512.39;1798951;77;21129;-51
2021/04/22 10:50:42;;;;;;;1.50;1.00;;;;;;;16.13;52.26;99512.06;1799643;77;21950;-51
2021/04/22 10:53:13;;;;;;;1.77;1.35;;;;;;;16.17;50.83;99506.27;1794894;77;21088;-51
2021/04/22 10:55:43;;;;;;;1.57;0.80;;;;;;;16.19;50.34;99504.32;1795783;77;21080;-51
2021/04/22 10:58:29;;;;;;;2.50;0.93;;;;;;;16.21;50.65;99516.43;1793444;77;20961;-51
2021/04/22 11:01:03;;;;;;;3.22;1.02;;;;;;;16.20;51.22;99522.34;1797621;77;22097;-51
2021/04/22 11:03:39;;;;;;;1.15;0.80;;;;;;;16.15;50.76;99507.39;1795174;77;22074;-51
2021/04/22 11:06:12;;;;;;;0.82;0.70;;;;;;;16.09;50.58;99509.19;1793157;77;21122;-52
2021/04/22 11:08:45;;;;;;;8.58;5.70;;;;;;;16.03;50.40;99513.72;1799427;77;21530;-50
2021/04/22 11:11:37;;;;;;;4.33;2.40;;;;;;;15.98;49.55;99507.30;1791385;77;21688;-50
2021/04/22 11:14:15;;;;;;;1.40;0.90;;;;;;;15.94;49.77;99504.91;1796840;77;21363;-51
2021/04/22 11:16:53;;;;;;;6.10;3.17;;;;;;;15.92;50.53;99509.57;1795350;77;21829;-52
2021/04/22 11:19:25;;;;;;;3.62;2.47;;;;;;;15.84;50.21;99515.56;1798199;77;21087;-50
2021/04/22 11:21:56;;;;;;;1.77;1.12;;;;;;;15.72;50.54;99517.84;1793033;77;21524;-51
2021/04/22 11:24:36;;;;;;;0.90;0.70;;;;;;;15.62;51.44;99518.13;1797199;77;21459;-52
2021/04/22 11:27:06;;;;;;;4.12;0.60;;;;;;;15.56;52.04;99499.59;1799281;77;21550;-50
2021/04/22 11:29:44;;;;;;;1.20;0.57;;;;;;;15.57;50.64;99499.45;1799352;77;21167;-50
2021/04/22 11:32:33;;;;;;;0.70;0.60;;;;;;;15.57;50.64;99499.45;1744092;80;21333;-50
2021/04/22 11:35:15;;;;;;;1.02;0.70;;;;;;;15.62;50.08;99491.00;1753357;79;21633;-52
2021/04/22 11:37:46;;;;;;;1.17;0.70;;;;;;;15.71;50.18;99481.70;1799115;77;21155;-50
2021/04/22 11:40:43;;;;;;;0.80;0.70;;;;;;;15.78;49.96;99476.19;1793570;77;21186;-49
2021/04/22 11:43:25;;;;;;;1.10;0.80;;;;;;;15.87;50.05;99483.66;1743122;80;21166;-50
2021/04/22 11:45:55;;;;;;;0.80;0.62;;;;;;;15.98;49.67;99468.42;1742666;79;21166;-51
2021/04/22 11:48:22;;;;;;;0.90;0.70;;;;;;;15.99;49.91;99453.88;1800439;77;21472;-49
2021/04/22 11:50:54;;;;;;;1.00;0.82;;;;;;;15.99;49.91;99453.88;1794165;77;21242;-49
2021/04/22 11:53:34;;;;;;;1.00;0.80;;;;;;;16.00;50.60;99443.36;1792946;77;21210;-51